Time,TemperatureF,DewpointF,PressureIn,WindDirection,WindDirectionDegrees,WindSpeedMPH,WindSpeedGustMPH,Humidity,HourlyPrecipIn,Conditions,Clouds,dailyrainin,SoftwareType,DateUTC
2013-06-01 00:06:00,46.4,42.0,25.25,NW,321,23.0,28.0,83,0.00,,,0.00,weatherlink.com 1.10,2013-06-01 06:06:00,
2013-06-01 00:21:00,46.0,41.0,25.25,NNW,343,16.0,25.0,84,0.00,,,0.00,weatherlink.com 1.10,2013-06-01 06:21:00,
2013-06-01 00:36:00,45.4,41.0,25.26,NW,314,22.0,30.0,85,0.00,,,0.00,weatherlink.com 1.10,2013-06-01 06:36:00,
2013-06-01 00:51:00,45.2,41.0,25.27,NNW,333,23.0,30.0,85,0.00,,,0.00,weatherlink.com 1.10,2013-06-01 06:51:00,
2013-06-01 01:07:00,45.1,41.0,25.27,NNW,334,11.0,25.0,86,0.00,,,0.00,weatherlink.com 1.10,2013-06-01 07:07:00,
2013-06-01 01:22:00,45.0,41.0,25.27,NW,315,19.0,25.0,86,0.00,,,0.00,weatherlink.com 1.10,2013-06-01 07:22:00,
2013-06-01 01:37:00,44.9,42.0,25.27,NW,323,20.0,30.0,88,0.00,,,0.00,weatherlink.com 1.10,2013-06-01 07:37:00,
2013-06-01 01:52:00,44.8,41.0,25.26,North,351,17.0,29.0,87,0.00,,,0.00,weatherlink.com 1.10,2013-06-01 07:52:00,
2013-06-01 02:07:00,44.8,41.0,25.27,NNW,330,14.0,26.0,87,0.00,,,0.00,weatherlink.com 1.10,2013-06-01 08:07:00,
2013-06-01 02:22:00,44.9,41.0,25.27,NNW,338,11.0,26.0,87,0.00,,,0.00,weatherlink.com 1.10,2013-06-01 08:22:00,
2013-06-01 02:37:00,45.0,41.0,25.28,NW,323,13.0,24.0,87,0.00,,,0.00,weatherlink.com 1.10,2013-06-01 08:37:00,
2013-06-01 02:52:00,45.2,41.0,25.27,NNW,337,16.0,27.0,86,0.00,,,0.00,weatherlink.com 1.10,2013-06-01 08:52:00,
2013-06-01 03:07:00,45.4,42.0,25.27,NW,311,16.0,24.0,86,0.00,,,0.00,weatherlink.com 1.10,2013-06-01 09:07:00,
2013-06-01 03:22:00,45.9,41.0,25.27,NW,307,12.0,23.0,84,0.00,,,0.00,weatherlink.com 1.10,2013-06-01 09:22:00,
2013-06-01 03:37:00,46.2,41.0,25.28,NNW,338,14.0,27.0,82,0.00,,,0.00,weatherlink.com 1.10,2013-06-01 09:37:00,
2013-06-01 03:52:00,46.4,41.0,25.29,NW,309,24.0,32.0,82,0.00,,,0.00,weatherlink.com 1.10,2013-06-01 09:52:00,
2013-06-01 04:07:00,46.7,41.0,25.29,NNW,341,12.0,29.0,81,0.00,,,0.00,weatherlink.com 1.10,2013-06-01 10:07:00,
2013-06-01 04:22:00,46.5,41.0,25.29,NNW,343,15.0,27.0,82,0.00,,,0.00,weatherlink.com 1.10,2013-06-01 10:22:00,
2013-06-01 04:37:00,46.5,42.0,25.30,North,349,23.0,29.0,83,0.00,,,0.00,weatherlink.com 1.10,2013-06-01 10:37:00,
2013-06-01 04:52:00,46.1,42.0,25.30,NNW,341,17.0,28.0,85,0.00,,,0.00,weatherlink.com 1.10,2013-06-01 10:52:00,
2013-06-01 05:07:00,45.9,42.0,25.30,NNW,345,16.0,26.0,86,0.00,,,0.00,weatherlink.com 1.10,2013-06-01 11:07:00,
2013-06-01 05:22:00,45.7,42.0,25.31,NNW,332,16.0,30.0,87,0.00,,,0.00,weatherlink.com 1.10,2013-06-01 11:22:00,
2013-06-01 05:37:00,44.9,42.0,25.32,NW,326,9.0,21.0,90,0.00,,,0.00,weatherlink.com 1.10,2013-06-01 11:37:00,
2013-06-01 05:52:00,45.1,42.0,25.32,NNW,328,10.0,19.0,90,0.00,,,0.00,weatherlink.com 1.10,2013-06-01 11:52:00,
2013-06-01 06:07:00,45.4,42.0,25.33,North,354,9.0,20.0,89,0.00,,,0.00,weatherlink.com 1.10,2013-06-01 12:07:00,
2013-06-01 06:22:00,45.2,43.0,25.34,NW,322,12.0,16.0,90,0.00,,,0.00,weatherlink.com 1.10,2013-06-01 12:22:00,
2013-06-01 06:37:00,45.5,43.0,25.34,NW,319,12.0,16.0,90,0.00,,,0.00,weatherlink.com 1.10,2013-06-01 12:37:00,
2013-06-01 06:52:00,45.9,43.0,25.35,NNW,338,12.0,20.0,90,0.00,,,0.00,weatherlink.com 1.10,2013-06-01 12:52:00,
2013-06-01 07:07:00,45.9,43.0,25.36,NNW,335,18.0,21.0,90,0.00,,,0.00,weatherlink.com 1.10,2013-06-01 13:07:00,
2013-06-01 07:22:00,45.8,43.0,25.36,NW,307,10.0,27.0,90,0.00,,,0.00,weatherlink.com 1.10,2013-06-01 13:22:00,
2013-06-01 07:37:00,45.6,43.0,25.37,NNW,338,14.0,28.0,90,0.00,,,0.00,weatherlink.com 1.10,2013-06-01 13:37:00,
2013-06-01 07:52:00,45.7,43.0,25.37,NW,316,14.0,23.0,90,0.00,,,0.00,weatherlink.com 1.10,2013-06-01 13:52:00,
2013-06-01 08:07:00,45.7,43.0,25.38,NW,323,19.0,22.0,90,0.00,,,0.00,weatherlink.com 1.10,2013-06-01 14:07:00,
2013-06-01 08:22:00,45.9,43.0,25.39,NNE,23,16.0,22.0,90,0.00,,,0.00,weatherlink.com 1.10,2013-06-01 14:22:00,
2013-06-01 08:37:00,45.9,43.0,25.40,NNW,333,17.0,25.0,90,0.00,,,0.00,weatherlink.com 1.10,2013-06-01 14:37:00,
2013-06-01 08:52:00,46.7,43.0,25.39,NNW,338,11.0,26.0,88,0.00,,,0.00,weatherlink.com 1.10,2013-06-01 14:52:00,
2013-06-01 09:08:00,47.0,44.0,25.39,NNW,334,18.0,29.0,88,0.00,,,0.00,weatherlink.com 1.10,2013-06-01 15:08:00,
2013-06-01 09:23:00,47.7,43.0,25.40,NNW,333,25.0,31.0,83,0.00,,,0.00,weatherlink.com 1.10,2013-06-01 15:23:00,
2013-06-01 09:38:00,49.0,43.0,25.40,NNW,341,19.0,28.0,79,0.00,,,0.00,weatherlink.com 1.10,2013-06-01 15:38:00,
2013-06-01 09:53:00,49.6,43.0,25.39,NNW,345,20.0,29.0,77,0.00,,,0.00,weatherlink.com 1.10,2013-06-01 15:53:00,
2013-06-01 10:08:00,50.0,42.0,25.39,NW,322,18.0,29.0,75,0.00,,,0.00,weatherlink.com 1.10,2013-06-01 16:08:00,
2013-06-01 10:23:00,51.1,43.0,25.39,North,356,21.0,28.0,73,0.00,,,0.00,weatherlink.com 1.10,2013-06-01 16:23:00,
2013-06-01 10:38:00,52.2,42.0,25.39,NNW,331,19.0,30.0,69,0.00,,,0.00,weatherlink.com 1.10,2013-06-01 16:38:00,
2013-06-01 10:53:00,52.1,42.0,25.39,NNW,334,20.0,27.0,68,0.00,,,0.00,weatherlink.com 1.10,2013-06-01 16:53:00,
2013-06-01 11:08:00,53.4,41.0,25.40,North,351,21.0,29.0,64,0.00,,,0.00,weatherlink.com 1.10,2013-06-01 17:08:00,
2013-06-01 11:23:00,54.9,41.0,25.39,NW,324,26.0,28.0,61,0.00,,,0.00,weatherlink.com 1.10,2013-06-01 17:23:00,
2013-06-01 11:38:00,55.9,40.0,25.40,NNW,334,17.0,27.0,56,0.00,,,0.00,weatherlink.com 1.10,2013-06-01 17:38:00,
2013-06-01 11:53:00,56.6,40.0,25.39,NW,324,19.0,24.0,54,0.00,,,0.00,weatherlink.com 1.10,2013-06-01 17:53:00,
2013-06-01 12:08:00,57.8,39.0,25.40,NW,317,17.0,27.0,49,0.00,,,0.00,weatherlink.com 1.10,2013-06-01 18:08:00,
2013-06-01 12:23:00,58.0,38.0,25.39,NNW,342,24.0,27.0,47,0.00,,,0.00,weatherlink.com 1.10,2013-06-01 18:23:00,
2013-06-01 12:38:00,59.6,37.0,25.39,NNW,336,17.0,28.0,44,0.00,,,0.00,weatherlink.com 1.10,2013-06-01 18:38:00,
2013-06-01 12:53:00,60.2,37.0,25.40,NNE,15,12.0,23.0,42,0.00,,,0.00,weatherlink.com 1.10,2013-06-01 18:53:00,
2013-06-01 13:08:00,61.3,34.0,25.39,North,3,18.0,29.0,36,0.00,,,0.00,weatherlink.com 1.10,2013-06-01 19:08:00,
2013-06-01 13:23:00,61.5,35.0,25.39,NNE,16,19.0,24.0,38,0.00,,,0.00,weatherlink.com 1.10,2013-06-01 19:23:00,
2013-06-01 13:38:00,62.1,36.0,25.39,NNW,342,13.0,26.0,38,0.00,,,0.00,weatherlink.com 1.10,2013-06-01 19:38:00,
2013-06-01 13:53:00,62.8,35.0,25.39,NNW,337,13.0,24.0,35,0.00,,,0.00,weatherlink.com 1.10,2013-06-01 19:53:00,
2013-06-01 14:08:00,63.2,34.0,25.39,NNW,339,15.0,24.0,34,0.00,,,0.00,weatherlink.com 1.10,2013-06-01 20:08:00,
2013-06-01 14:23:00,63.6,34.0,25.38,NNW,337,11.0,25.0,33,0.00,,,0.00,weatherlink.com 1.10,2013-06-01 20:23:00,
2013-06-01 14:38:00,63.5,33.0,25.38,NNW,345,11.0,20.0,32,0.00,,,0.00,weatherlink.com 1.10,2013-06-01 20:38:00,
2013-06-01 14:53:00,64.6,32.0,25.38,NNW,345,12.0,20.0,30,0.00,,,0.00,weatherlink.com 1.10,2013-06-01 20:53:00,
2013-06-01 15:08:00,64.7,33.0,25.38,North,356,13.0,20.0,31,0.00,,,0.00,weatherlink.com 1.10,2013-06-01 21:08:00,
2013-06-01 15:23:00,65.2,34.0,25.38,NNE,18,13.0,22.0,31,0.00,,,0.00,weatherlink.com 1.10,2013-06-01 21:23:00,
2013-06-01 15:39:00,65.1,34.0,25.38,North,11,11.0,23.0,31,0.00,,,0.00,weatherlink.com 1.10,2013-06-01 21:39:00,
2013-06-01 15:54:00,65.7,34.0,25.37,NE,34,12.0,22.0,31,0.00,,,0.00,weatherlink.com 1.10,2013-06-01 21:54:00,
2013-06-01 16:09:00,65.4,33.0,25.37,NNW,338,9.0,25.0,30,0.00,,,0.00,weatherlink.com 1.10,2013-06-01 22:09:00,
2013-06-01 16:24:00,65.4,33.0,25.38,NW,321,13.0,25.0,30,0.00,,,0.00,weatherlink.com 1.10,2013-06-01 22:24:00,
2013-06-01 16:39:00,65.2,32.0,25.37,NE,40,14.0,21.0,29,0.00,,,0.00,weatherlink.com 1.10,2013-06-01 22:39:00,
2013-06-01 16:54:00,65.8,33.0,25.37,NW,322,13.0,21.0,29,0.00,,,0.00,weatherlink.com 1.10,2013-06-01 22:54:00,
2013-06-01 17:09:00,65.3,32.0,25.37,NW,313,7.0,26.0,29,0.00,,,0.00,weatherlink.com 1.10,2013-06-01 23:09:00,
2013-06-01 17:24:00,65.4,34.0,25.38,NNE,20,13.0,19.0,31,0.00,,,0.00,weatherlink.com 1.10,2013-06-01 23:24:00,
2013-06-01 17:39:00,65.3,33.0,25.37,NE,43,13.0,21.0,30,0.00,,,0.00,weatherlink.com 1.10,2013-06-01 23:39:00,
2013-06-01 17:54:00,65.0,34.0,25.37,NNW,338,6.0,18.0,32,0.00,,,0.00,weatherlink.com 1.10,2013-06-01 23:54:00,
2013-06-01 18:09:00,64.7,35.0,25.37,NW,326,14.0,19.0,33,0.00,,,0.00,weatherlink.com 1.10,2013-06-02 00:09:00,
2013-06-01 18:24:00,63.8,35.0,25.37,NE,37,15.0,19.0,34,0.00,,,0.00,weatherlink.com 1.10,2013-06-02 00:24:00,
2013-06-01 18:39:00,63.6,35.0,25.37,NNE,32,13.0,22.0,34,0.00,,,0.00,weatherlink.com 1.10,2013-06-02 00:39:00,
2013-06-01 18:54:00,63.1,34.0,25.37,NNE,31,9.0,14.0,34,0.00,,,0.00,weatherlink.com 1.10,2013-06-02 00:54:00,
2013-06-01 19:09:00,62.4,34.0,25.37,NNE,33,7.0,17.0,35,0.00,,,0.00,weatherlink.com 1.10,2013-06-02 01:09:00,
2013-06-01 19:24:00,61.7,35.0,25.38,NE,35,12.0,15.0,37,0.00,,,0.00,weatherlink.com 1.10,2013-06-02 01:24:00,
2013-06-01 19:39:00,60.9,36.0,25.37,NE,34,10.0,13.0,39,0.00,,,0.00,weatherlink.com 1.10,2013-06-02 01:39:00,
2013-06-01 19:54:00,59.7,36.0,25.37,NE,35,7.0,9.0,41,0.00,,,0.00,weatherlink.com 1.10,2013-06-02 01:54:00,
2013-06-01 20:09:00,58.1,37.0,25.38,NE,41,6.0,7.0,45,0.00,,,0.00,weatherlink.com 1.10,2013-06-02 02:09:00,
2013-06-01 20:24:00,56.0,37.0,25.38,NE,42,1.0,5.0,50,0.00,,,0.00,weatherlink.com 1.10,2013-06-02 02:24:00,
2013-06-01 20:39:00,54.6,37.0,25.39,NE,41,2.0,2.0,52,0.00,,,0.00,weatherlink.com 1.10,2013-06-02 02:39:00,
2013-06-01 20:54:00,54.2,37.0,25.39,NE,51,0.0,1.0,52,0.00,,,0.00,weatherlink.com 1.10,2013-06-02 02:54:00,
2013-06-01 21:09:00,53.8,37.0,25.40,NE,50,1.0,1.0,54,0.00,,,0.00,weatherlink.com 1.10,2013-06-02 03:09:00,
2013-06-01 21:24:00,53.2,38.0,25.40,NNE,30,2.0,2.0,56,0.00,,,0.00,weatherlink.com 1.10,2013-06-02 03:24:00,
2013-06-01 21:39:00,52.2,38.0,25.41,North,353,0.0,2.0,58,0.00,,,0.00,weatherlink.com 1.10,2013-06-02 03:39:00,
2013-06-01 21:54:00,51.3,38.0,25.41,SE,134,0.0,1.0,61,0.00,,,0.00,weatherlink.com 1.10,2013-06-02 03:54:00,
2013-06-01 22:09:00,50.4,39.0,25.42,SE,134,0.0,1.0,64,0.00,,,0.00,weatherlink.com 1.10,2013-06-02 04:09:00,
2013-06-01 22:24:00,50.1,39.0,25.41,SE,134,0.0,0.0,65,0.00,,,0.00,weatherlink.com 1.10,2013-06-02 04:24:00,
2013-06-01 22:39:00,48.8,38.0,25.42,SE,146,0.0,1.0,67,0.00,,,0.00,weatherlink.com 1.10,2013-06-02 04:39:00,
2013-06-01 22:54:00,47.7,39.0,25.41,SSE,147,0.0,0.0,71,0.00,,,0.00,weatherlink.com 1.10,2013-06-02 04:54:00,
2013-06-01 23:09:00,46.9,38.0,25.41,SE,146,0.0,1.0,71,0.00,,,0.00,weatherlink.com 1.10,2013-06-02 05:09:00,
2013-06-01 23:24:00,46.1,39.0,25.41,SW,214,0.0,1.0,75,0.00,,,0.00,weatherlink.com 1.10,2013-06-02 05:24:00,
2013-06-01 23:39:00,46.8,39.0,25.42,SW,214,0.0,1.0,73,0.00,,,0.00,weatherlink.com 1.10,2013-06-02 05:39:00,
2013-06-01 23:54:00,46.6,38.0,25.42,SE,143,0.0,2.0,73,0.00,,,0.00,weatherlink.com 1.10,2013-06-02 05:54:00,